sensor_id;sensor_type;location;lat;lon;timestamp;temperature;humidity
31747;DHT22;18319;48.974;8.462;2023-10-08T00:01:41;15.90;80.90
31747;DHT22;18319;48.974;8.462;2023-10-08T00:04:09;15.80;80.10
31747;DHT22;18319;48.974;8.462;2023-10-08T00:06:37;15.80;80.80
31747;DHT22;18319;48.974;8.462;2023-10-08T00:09:04;15.80;79.80
31747;DHT22;18319;48.974;8.462;2023-10-08T00:11:34;15.70;82.60
31747;DHT22;18319;48.974;8.462;2023-10-08T00:14:03;15.50;81.60
31747;DHT22;18319;48.974;8.462;2023-10-08T00:16:35;15.50;81.90
31747;DHT22;18319;48.974;8.462;2023-10-08T00:19:05;15.40;85.00
31747;DHT22;18319;48.974;8.462;2023-10-08T00:21:34;15.30;85.30
31747;DHT22;18319;48.974;8.462;2023-10-08T00:24:02;15.20;84.30
31747;DHT22;18319;48.974;8.462;2023-10-08T00:26:32;15.10;85.80
31747;DHT22;18319;48.974;8.462;2023-10-08T00:29:03;15.00;87.20
31747;DHT22;18319;48.974;8.462;2023-10-08T00:31:32;15.10;82.40
31747;DHT22;18319;48.974;8.462;2023-10-08T00:34:03;15.00;84.50
31747;DHT22;18319;48.974;8.462;2023-10-08T00:36:31;15.00;82.10
31747;DHT22;18319;48.974;8.462;2023-10-08T00:38:59;15.10;79.90
31747;DHT22;18319;48.974;8.462;2023-10-08T00:41:26;15.30;76.90
31747;DHT22;18319;48.974;8.462;2023-10-08T00:43:57;15.30;77.30
31747;DHT22;18319;48.974;8.462;2023-10-08T00:46:27;15.50;75.70
31747;DHT22;18319;48.974;8.462;2023-10-08T00:48:59;15.60;74.80
31747;DHT22;18319;48.974;8.462;2023-10-08T00:51:43;15.70;75.40
31747;DHT22;18319;48.974;8.462;2023-10-08T00:54:12;15.70;74.00
31747;DHT22;18319;48.974;8.462;2023-10-08T00:56:46;15.60;75.10
31747;DHT22;18319;48.974;8.462;2023-10-08T00:59:22;16.00;73.90
31747;DHT22;18319;48.974;8.462;2023-10-08T01:01:52;15.90;73.90
31747;DHT22;18319;48.974;8.462;2023-10-08T01:04:25;16.10;72.40
31747;DHT22;18319;48.974;8.462;2023-10-08T01:06:54;16.10;73.20
31747;DHT22;18319;48.974;8.462;2023-10-08T01:09:25;16.00;74.90
31747;DHT22;18319;48.974;8.462;2023-10-08T01:12:11;16.00;72.50
31747;DHT22;18319;48.974;8.462;2023-10-08T01:14:41;16.00;72.50
31747;DHT22;18319;48.974;8.462;2023-10-08T01:17:10;16.00;77.10
31747;DHT22;18319;48.974;8.462;2023-10-08T01:19:40;16.10;72.20
31747;DHT22;18319;48.974;8.462;2023-10-08T01:22:09;15.90;74.10
31747;DHT22;18319;48.974;8.462;2023-10-08T01:24:42;16.00;73.90
31747;DHT22;18319;48.974;8.462;2023-10-08T01:27:09;15.90;75.30
31747;DHT22;18319;48.974;8.462;2023-10-08T01:29:38;15.80;73.50
31747;DHT22;18319;48.974;8.462;2023-10-08T01:32:04;15.80;74.30
31747;DHT22;18319;48.974;8.462;2023-10-08T01:34:36;15.60;76.40
31747;DHT22;18319;48.974;8.462;2023-10-08T01:37:03;15.40;79.10
31747;DHT22;18319;48.974;8.462;2023-10-08T01:39:37;15.30;81.70
31747;DHT22;18319;48.974;8.462;2023-10-08T01:42:05;15.00;83.60
31747;DHT22;18319;48.974;8.462;2023-10-08T01:44:32;15.20;80.00
31747;DHT22;18319;48.974;8.462;2023-10-08T01:47:00;15.10;81.30
31747;DHT22;18319;48.974;8.462;2023-10-08T01:49:29;15.30;79.60
31747;DHT22;18319;48.974;8.462;2023-10-08T01:51:58;15.20;80.40
31747;DHT22;18319;48.974;8.462;2023-10-08T01:54:31;15.20;79.50
31747;DHT22;18319;48.974;8.462;2023-10-08T01:57:02;15.10;82.00
31747;DHT22;18319;48.974;8.462;2023-10-08T01:59:31;15.00;84.30
31747;DHT22;18319;48.974;8.462;2023-10-08T02:01:59;15.00;82.90
31747;DHT22;18319;48.974;8.462;2023-10-08T02:04:25;15.00;83.60
31747;DHT22;18319;48.974;8.462;2023-10-08T02:06:53;14.80;85.10
31747;DHT22;18319;48.974;8.462;2023-10-08T02:09:20;14.80;83.70
31747;DHT22;18319;48.974;8.462;2023-10-08T02:11:52;14.90;83.10
31747;DHT22;18319;48.974;8.462;2023-10-08T02:14:21;14.90;81.30
31747;DHT22;18319;48.974;8.462;2023-10-08T02:16:48;14.90;80.90
31747;DHT22;18319;48.974;8.462;2023-10-08T02:19:15;14.90;81.20
31747;DHT22;18319;48.974;8.462;2023-10-08T02:21:46;14.70;82.20
31747;DHT22;18319;48.974;8.462;2023-10-08T02:24:13;14.60;84.30
31747;DHT22;18319;48.974;8.462;2023-10-08T02:26:40;14.60;83.50
31747;DHT22;18319;48.974;8.462;2023-10-08T02:29:09;14.50;83.00
31747;DHT22;18319;48.974;8.462;2023-10-08T02:31:39;14.50;85.00
31747;DHT22;18319;48.974;8.462;2023-10-08T02:34:06;14.30;88.70
31747;DHT22;18319;48.974;8.462;2023-10-08T02:36:34;14.10;90.00
31747;DHT22;18319;48.974;8.462;2023-10-08T02:39:03;14.10;87.40
31747;DHT22;18319;48.974;8.462;2023-10-08T02:41:39;14.00;89.10
31747;DHT22;18319;48.974;8.462;2023-10-08T02:44:07;14.00;88.40
31747;DHT22;18319;48.974;8.462;2023-10-08T02:46:39;14.10;85.30
31747;DHT22;18319;48.974;8.462;2023-10-08T02:49:07;13.80;86.70
31747;DHT22;18319;48.974;8.462;2023-10-08T02:51:37;13.80;87.20
31747;DHT22;18319;48.974;8.462;2023-10-08T02:54:04;13.70;87.90
31747;DHT22;18319;48.974;8.462;2023-10-08T02:56:32;13.70;86.20
31747;DHT22;18319;48.974;8.462;2023-10-08T02:58:59;13.60;88.00
31747;DHT22;18319;48.974;8.462;2023-10-08T03:01:28;13.60;86.80
31747;DHT22;18319;48.974;8.462;2023-10-08T03:04:00;13.60;87.20
31747;DHT22;18319;48.974;8.462;2023-10-08T03:06:34;13.80;84.80
31747;DHT22;18319;48.974;8.462;2023-10-08T03:09:04;13.90;85.50
31747;DHT22;18319;48.974;8.462;2023-10-08T03:11:30;14.00;81.80
31747;DHT22;18319;48.974;8.462;2023-10-08T03:13:57;14.20;82.80
31747;DHT22;18319;48.974;8.462;2023-10-08T03:16:25;14.30;82.00
31747;DHT22;18319;48.974;8.462;2023-10-08T03:19:01;14.20;84.10
31747;DHT22;18319;48.974;8.462;2023-10-08T03:21:31;14.10;84.50
31747;DHT22;18319;48.974;8.462;2023-10-08T03:24:14;14.40;83.20
31747;DHT22;18319;48.974;8.462;2023-10-08T03:26:55;14.30;81.80
31747;DHT22;18319;48.974;8.462;2023-10-08T03:29:32;14.30;85.80
31747;DHT22;18319;48.974;8.462;2023-10-08T03:31:59;14.20;85.90
31747;DHT22;18319;48.974;8.462;2023-10-08T03:34:32;14.10;85.30
31747;DHT22;18319;48.974;8.462;2023-10-08T03:37:02;14.10;85.10
31747;DHT22;18319;48.974;8.462;2023-10-08T03:39:32;14.00;85.00
31747;DHT22;18319;48.974;8.462;2023-10-08T03:42:19;13.80;89.10
31747;DHT22;18319;48.974;8.462;2023-10-08T03:44:47;13.80;85.80
31747;DHT22;18319;48.974;8.462;2023-10-08T03:47:18;13.70;85.50
31747;DHT22;18319;48.974;8.462;2023-10-08T03:49:49;13.60;88.10
31747;DHT22;18319;48.974;8.462;2023-10-08T03:52:17;13.60;89.30
31747;DHT22;18319;48.974;8.462;2023-10-08T03:54:44;13.50;90.40
31747;DHT22;18319;48.974;8.462;2023-10-08T03:57:16;13.40;90.70
31747;DHT22;18319;48.974;8.462;2023-10-08T03:59:51;13.30;90.20
31747;DHT22;18319;48.974;8.462;2023-10-08T04:02:24;13.20;90.70
31747;DHT22;18319;48.974;8.462;2023-10-08T04:05:06;13.10;90.40
31747;DHT22;18319;48.974;8.462;2023-10-08T04:07:44;13.20;88.50
31747;DHT22;18319;48.974;8.462;2023-10-08T04:10:32;13.10;90.40
31747;DHT22;18319;48.974;8.462;2023-10-08T04:13:25;13.00;90.30
31747;DHT22;18319;48.974;8.462;2023-10-08T04:15:53;13.00;90.60
31747;DHT22;18319;48.974;8.462;2023-10-08T04:18:20;13.00;90.90
31747;DHT22;18319;48.974;8.462;2023-10-08T04:20:48;13.00;90.90
31747;DHT22;18319;48.974;8.462;2023-10-08T04:23:26;12.90;90.90
31747;DHT22;18319;48.974;8.462;2023-10-08T04:25:54;12.90;91.60
31747;DHT22;18319;48.974;8.462;2023-10-08T04:28:21;12.80;91.30
31747;DHT22;18319;48.974;8.462;2023-10-08T04:30:54;12.80;91.30
31747;DHT22;18319;48.974;8.462;2023-10-08T04:33:27;12.80;90.40
31747;DHT22;18319;48.974;8.462;2023-10-08T04:36:00;12.70;91.00
31747;DHT22;18319;48.974;8.462;2023-10-08T04:38:28;13.10;89.60
31747;DHT22;18319;48.974;8.462;2023-10-08T04:40:56;12.80;90.80
31747;DHT22;18319;48.974;8.462;2023-10-08T04:43:27;12.80;90.90
31747;DHT22;18319;48.974;8.462;2023-10-08T04:45:56;12.80;91.70
31747;DHT22;18319;48.974;8.462;2023-10-08T04:48:23;12.80;91.20
31747;DHT22;18319;48.974;8.462;2023-10-08T04:50:51;12.80;91.70
31747;DHT22;18319;48.974;8.462;2023-10-08T04:53:26;12.90;91.60
31747;DHT22;18319;48.974;8.462;2023-10-08T04:55:58;12.80;92.60
31747;DHT22;18319;48.974;8.462;2023-10-08T04:58:31;12.70;93.20
31747;DHT22;18319;48.974;8.462;2023-10-08T05:01:02;12.50;93.50
31747;DHT22;18319;48.974;8.462;2023-10-08T05:03:57;12.40;94.00
31747;DHT22;18319;48.974;8.462;2023-10-08T05:06:38;12.20;94.40
31747;DHT22;18319;48.974;8.462;2023-10-08T05:09:26;12.20;94.70
31747;DHT22;18319;48.974;8.462;2023-10-08T05:12:10;12.10;95.10
31747;DHT22;18319;48.974;8.462;2023-10-08T05:14:54;12.00;95.00
31747;DHT22;18319;48.974;8.462;2023-10-08T05:17:44;12.00;94.50
31747;DHT22;18319;48.974;8.462;2023-10-08T05:20:25;11.90;95.30
31747;DHT22;18319;48.974;8.462;2023-10-08T05:23:24;11.90;95.50
31747;DHT22;18319;48.974;8.462;2023-10-08T05:26:18;11.80;95.60
31747;DHT22;18319;48.974;8.462;2023-10-08T05:28:56;11.70;96.10
31747;DHT22;18319;48.974;8.462;2023-10-08T05:31:27;11.80;96.40
31747;DHT22;18319;48.974;8.462;2023-10-08T05:34:08;11.80;96.70
31747;DHT22;18319;48.974;8.462;2023-10-08T05:36:44;11.80;97.10
31747;DHT22;18319;48.974;8.462;2023-10-08T05:39:26;11.80;96.50
31747;DHT22;18319;48.974;8.462;2023-10-08T05:42:06;11.80;97.60
31747;DHT22;18319;48.974;8.462;2023-10-08T05:44:39;12.00;97.00
31747;DHT22;18319;48.974;8.462;2023-10-08T05:47:06;11.90;97.30
31747;DHT22;18319;48.974;8.462;2023-10-08T05:49:49;12.00;96.80
31747;DHT22;18319;48.974;8.462;2023-10-08T05:52:37;12.00;97.70
31747;DHT22;18319;48.974;8.462;2023-10-08T05:55:28;12.00;98.00
31747;DHT22;18319;48.974;8.462;2023-10-08T05:58:02;11.90;97.90
31747;DHT22;18319;48.974;8.462;2023-10-08T06:00:39;11.90;98.20
31747;DHT22;18319;48.974;8.462;2023-10-08T06:03:13;11.90;99.10
31747;DHT22;18319;48.974;8.462;2023-10-08T06:06:03;11.90;99.30
31747;DHT22;18319;48.974;8.462;2023-10-08T06:08:49;11.90;99.90
31747;DHT22;18319;48.974;8.462;2023-10-08T06:11:33;12.00;99.90
31747;DHT22;18319;48.974;8.462;2023-10-08T06:14:10;11.90;99.90
31747;DHT22;18319;48.974;8.462;2023-10-08T06:16:42;11.90;99.90
31747;DHT22;18319;48.974;8.462;2023-10-08T06:19:10;11.90;99.90
31747;DHT22;18319;48.974;8.462;2023-10-08T06:21:42;12.00;99.90
31747;DHT22;18319;48.974;8.462;2023-10-08T06:24:10;12.00;99.90
31747;DHT22;18319;48.974;8.462;2023-10-08T06:26:42;12.10;99.90
31747;DHT22;18319;48.974;8.462;2023-10-08T06:29:14;12.10;99.90
31747;DHT22;18319;48.974;8.462;2023-10-08T06:31:54;12.30;99.90
31747;DHT22;18319;48.974;8.462;2023-10-08T06:34:21;12.40;99.90
31747;DHT22;18319;48.974;8.462;2023-10-08T06:36:53;12.40;99.90
31747;DHT22;18319;48.974;8.462;2023-10-08T06:39:25;12.30;99.90
31747;DHT22;18319;48.974;8.462;2023-10-08T06:41:59;12.20;99.90
31747;DHT22;18319;48.974;8.462;2023-10-08T06:44:25;12.20;99.90
31747;DHT22;18319;48.974;8.462;2023-10-08T06:46:55;12.20;99.90
31747;DHT22;18319;48.974;8.462;2023-10-08T06:49:24;12.20;99.90
31747;DHT22;18319;48.974;8.462;2023-10-08T06:51:56;12.30;99.90
31747;DHT22;18319;48.974;8.462;2023-10-08T06:54:24;12.40;99.90
31747;DHT22;18319;48.974;8.462;2023-10-08T06:56:55;12.40;99.90
31747;DHT22;18319;48.974;8.462;2023-10-08T06:59:22;12.50;99.90
31747;DHT22;18319;48.974;8.462;2023-10-08T07:01:51;12.50;99.90
31747;DHT22;18319;48.974;8.462;2023-10-08T07:04:18;12.50;99.90
31747;DHT22;18319;48.974;8.462;2023-10-08T07:06:47;12.60;99.90
31747;DHT22;18319;48.974;8.462;2023-10-08T07:09:14;12.70;99.90
31747;DHT22;18319;48.974;8.462;2023-10-08T07:11:56;12.70;99.90
31747;DHT22;18319;48.974;8.462;2023-10-08T07:14:23;12.90;99.90
31747;DHT22;18319;48.974;8.462;2023-10-08T07:16:52;13.00;99.90
31747;DHT22;18319;48.974;8.462;2023-10-08T07:19:20;13.00;99.90
31747;DHT22;18319;48.974;8.462;2023-10-08T07:21:49;13.00;99.90
31747;DHT22;18319;48.974;8.462;2023-10-08T07:24:20;13.00;99.90
31747;DHT22;18319;48.974;8.462;2023-10-08T07:26:48;12.90;99.90
31747;DHT22;18319;48.974;8.462;2023-10-08T07:29:22;12.90;99.90
31747;DHT22;18319;48.974;8.462;2023-10-08T07:31:50;12.80;99.90
31747;DHT22;18319;48.974;8.462;2023-10-08T07:34:18;12.80;99.90
31747;DHT22;18319;48.974;8.462;2023-10-08T07:36:52;12.90;99.90
31747;DHT22;18319;48.974;8.462;2023-10-08T07:39:21;13.00;99.90
31747;DHT22;18319;48.974;8.462;2023-10-08T07:42:03;13.20;99.90
31747;DHT22;18319;48.974;8.462;2023-10-08T07:44:35;13.40;99.90
31747;DHT22;18319;48.974;8.462;2023-10-08T07:47:05;13.50;99.90
31747;DHT22;18319;48.974;8.462;2023-10-08T07:49:35;13.80;99.90
31747;DHT22;18319;48.974;8.462;2023-10-08T07:52:02;13.90;99.90
31747;DHT22;18319;48.974;8.462;2023-10-08T07:54:30;14.00;98.60
31747;DHT22;18319;48.974;8.462;2023-10-08T07:57:00;14.20;99.30
31747;DHT22;18319;48.974;8.462;2023-10-08T07:59:35;14.30;98.80
31747;DHT22;18319;48.974;8.462;2023-10-08T08:02:04;14.50;98.70
31747;DHT22;18319;48.974;8.462;2023-10-08T08:04:35;14.60;98.70
31747;DHT22;18319;48.974;8.462;2023-10-08T08:07:02;14.70;98.30
31747;DHT22;18319;48.974;8.462;2023-10-08T08:09:30;14.80;97.60
31747;DHT22;18319;48.974;8.462;2023-10-08T08:12:04;14.90;98.00
31747;DHT22;18319;48.974;8.462;2023-10-08T08:14:34;15.00;98.40
31747;DHT22;18319;48.974;8.462;2023-10-08T08:17:04;15.10;98.10
31747;DHT22;18319;48.974;8.462;2023-10-08T08:19:38;15.20;98.80
31747;DHT22;18319;48.974;8.462;2023-10-08T08:22:05;15.30;99.50
31747;DHT22;18319;48.974;8.462;2023-10-08T08:24:32;15.30;98.20
31747;DHT22;18319;48.974;8.462;2023-10-08T08:27:01;15.40;97.90
31747;DHT22;18319;48.974;8.462;2023-10-08T08:29:35;15.50;97.50
31747;DHT22;18319;48.974;8.462;2023-10-08T08:32:09;15.60;95.20
31747;DHT22;18319;48.974;8.462;2023-10-08T08:34:38;15.70;95.10
31747;DHT22;18319;48.974;8.462;2023-10-08T08:37:09;15.70;95.70
31747;DHT22;18319;48.974;8.462;2023-10-08T08:39:36;15.70;95.00
31747;DHT22;18319;48.974;8.462;2023-10-08T08:42:05;15.80;93.90
31747;DHT22;18319;48.974;8.462;2023-10-08T08:44:35;15.90;94.80
31747;DHT22;18319;48.974;8.462;2023-10-08T08:47:05;15.90;95.00
31747;DHT22;18319;48.974;8.462;2023-10-08T08:49:34;16.00;94.70
31747;DHT22;18319;48.974;8.462;2023-10-08T08:52:06;16.20;92.60
31747;DHT22;18319;48.974;8.462;2023-10-08T08:54:35;16.30;92.60
31747;DHT22;18319;48.974;8.462;2023-10-08T08:57:03;16.50;94.30
31747;DHT22;18319;48.974;8.462;2023-10-08T08:59:32;16.70;93.40
31747;DHT22;18319;48.974;8.462;2023-10-08T09:02:03;17.00;92.50
31747;DHT22;18319;48.974;8.462;2023-10-08T09:04:33;17.30;91.10
31747;DHT22;18319;48.974;8.462;2023-10-08T09:07:03;17.30;90.60
31747;DHT22;18319;48.974;8.462;2023-10-08T09:09:33;17.30;90.40
31747;DHT22;18319;48.974;8.462;2023-10-08T09:12:00;17.70;92.00
31747;DHT22;18319;48.974;8.462;2023-10-08T09:14:30;17.80;87.90
31747;DHT22;18319;48.974;8.462;2023-10-08T09:16:58;18.00;87.90
31747;DHT22;18319;48.974;8.462;2023-10-08T09:19:27;18.40;83.70
31747;DHT22;18319;48.974;8.462;2023-10-08T09:22:02;18.50;83.70
31747;DHT22;18319;48.974;8.462;2023-10-08T09:24:29;18.80;83.10
31747;DHT22;18319;48.974;8.462;2023-10-08T09:26:56;18.70;81.60
31747;DHT22;18319;48.974;8.462;2023-10-08T09:29:24;18.80;83.10
31747;DHT22;18319;48.974;8.462;2023-10-08T09:31:54;18.60;80.10
31747;DHT22;18319;48.974;8.462;2023-10-08T09:34:27;18.50;80.60
31747;DHT22;18319;48.974;8.462;2023-10-08T09:36:56;18.40;80.60
31747;DHT22;18319;48.974;8.462;2023-10-08T09:39:26;18.50;77.50
31747;DHT22;18319;48.974;8.462;2023-10-08T09:41:54;18.70;80.40
31747;DHT22;18319;48.974;8.462;2023-10-08T09:44:22;18.90;77.90
31747;DHT22;18319;48.974;8.462;2023-10-08T09:46:53;19.30;82.50
31747;DHT22;18319;48.974;8.462;2023-10-08T09:49:27;19.60;78.80
31747;DHT22;18319;48.974;8.462;2023-10-08T09:52:00;19.80;77.40
31747;DHT22;18319;48.974;8.462;2023-10-08T09:54:30;19.90;75.30
31747;DHT22;18319;48.974;8.462;2023-10-08T09:57:03;19.90;75.90
31747;DHT22;18319;48.974;8.462;2023-10-08T09:59:32;19.90;76.80
31747;DHT22;18319;48.974;8.462;2023-10-08T10:02:00;19.90;73.10
31747;DHT22;18319;48.974;8.462;2023-10-08T10:04:35;19.90;74.80
31747;DHT22;18319;48.974;8.462;2023-10-08T10:07:09;19.90;75.00
31747;DHT22;18319;48.974;8.462;2023-10-08T10:09:38;20.00;76.60
31747;DHT22;18319;48.974;8.462;2023-10-08T10:12:06;19.90;75.60
31747;DHT22;18319;48.974;8.462;2023-10-08T10:14:41;19.90;73.60
31747;DHT22;18319;48.974;8.462;2023-10-08T10:17:10;19.90;71.60
31747;DHT22;18319;48.974;8.462;2023-10-08T10:19:40;19.90;71.30
31747;DHT22;18319;48.974;8.462;2023-10-08T10:22:14;20.10;72.50
31747;DHT22;18319;48.974;8.462;2023-10-08T10:24:41;20.20;71.10
31747;DHT22;18319;48.974;8.462;2023-10-08T10:27:12;20.20;70.10
31747;DHT22;18319;48.974;8.462;2023-10-08T10:29:40;20.20;70.70
31747;DHT22;18319;48.974;8.462;2023-10-08T10:32:10;20.20;70.50
31747;DHT22;18319;48.974;8.462;2023-10-08T10:34:39;20.30;72.40
31747;DHT22;18319;48.974;8.462;2023-10-08T10:37:06;20.30;74.40
31747;DHT22;18319;48.974;8.462;2023-10-08T10:39:50;20.40;72.90
31747;DHT22;18319;48.974;8.462;2023-10-08T10:42:19;20.40;70.90
31747;DHT22;18319;48.974;8.462;2023-10-08T10:44:47;20.30;74.70
31747;DHT22;18319;48.974;8.462;2023-10-08T10:47:16;20.40;71.10
31747;DHT22;18319;48.974;8.462;2023-10-08T10:49:53;20.40;70.40
31747;DHT22;18319;48.974;8.462;2023-10-08T10:52:41;20.50;72.70
31747;DHT22;18319;48.974;8.462;2023-10-08T10:55:20;20.50;70.70
31747;DHT22;18319;48.974;8.462;2023-10-08T10:57:49;20.60;71.10
31747;DHT22;18319;48.974;8.462;2023-10-08T11:00:31;20.60;71.70
31747;DHT22;18319;48.974;8.462;2023-10-08T11:03:23;20.80;72.20
31747;DHT22;18319;48.974;8.462;2023-10-08T11:05:56;20.90;71.60
31747;DHT22;18319;48.974;8.462;2023-10-08T11:08:34;21.00;72.90
31747;DHT22;18319;48.974;8.462;2023-10-08T11:11:02;21.10;70.60
31747;DHT22;18319;48.974;8.462;2023-10-08T11:13:33;21.10;73.00
31747;DHT22;18319;48.974;8.462;2023-10-08T11:16:05;21.10;73.20
31747;DHT22;18319;48.974;8.462;2023-10-08T11:18:33;21.20;72.00
31747;DHT22;18319;48.974;8.462;2023-10-08T11:21:07;21.20;72.30
31747;DHT22;18319;48.974;8.462;2023-10-08T11:23:45;21.20;71.40
31747;DHT22;18319;48.974;8.462;2023-10-08T11:26:19;21.20;67.70
31747;DHT22;18319;48.974;8.462;2023-10-08T11:28:51;21.10;70.30
31747;DHT22;18319;48.974;8.462;2023-10-08T11:31:18;21.00;71.00
31747;DHT22;18319;48.974;8.462;2023-10-08T11:33:47;21.10;71.40
31747;DHT22;18319;48.974;8.462;2023-10-08T11:36:20;21.10;70.50
31747;DHT22;18319;48.974;8.462;2023-10-08T11:38:53;21.00;68.70
31747;DHT22;18319;48.974;8.462;2023-10-08T11:41:28;21.20;68.50
31747;DHT22;18319;48.974;8.462;2023-10-08T11:43:56;21.20;66.70
31747;DHT22;18319;48.974;8.462;2023-10-08T11:46:25;21.10;69.70
31747;DHT22;18319;48.974;8.462;2023-10-08T11:48:53;21.10;68.50
31747;DHT22;18319;48.974;8.462;2023-10-08T11:51:23;21.10;70.10
31747;DHT22;18319;48.974;8.462;2023-10-08T11:53:50;21.10;70.50
31747;DHT22;18319;48.974;8.462;2023-10-08T11:56:19;21.10;70.10
31747;DHT22;18319;48.974;8.462;2023-10-08T11:58:50;21.20;68.60
31747;DHT22;18319;48.974;8.462;2023-10-08T12:01:18;21.20;68.90
31747;DHT22;18319;48.974;8.462;2023-10-08T12:03:46;21.20;71.80
31747;DHT22;18319;48.974;8.462;2023-10-08T12:06:15;21.20;70.50
31747;DHT22;18319;48.974;8.462;2023-10-08T12:08:44;21.20;68.50
31747;DHT22;18319;48.974;8.462;2023-10-08T12:11:13;21.30;67.40
31747;DHT22;18319;48.974;8.462;2023-10-08T12:13:40;21.40;65.00
31747;DHT22;18319;48.974;8.462;2023-10-08T12:16:12;21.40;65.00
31747;DHT22;18319;48.974;8.462;2023-10-08T12:18:47;21.50;65.90
31747;DHT22;18319;48.974;8.462;2023-10-08T12:21:18;21.50;66.10
31747;DHT22;18319;48.974;8.462;2023-10-08T12:23:45;21.40;67.10
31747;DHT22;18319;48.974;8.462;2023-10-08T12:26:13;21.40;66.60
31747;DHT22;18319;48.974;8.462;2023-10-08T12:28:43;21.40;66.30
31747;DHT22;18319;48.974;8.462;2023-10-08T12:31:12;21.60;65.30
31747;DHT22;18319;48.974;8.462;2023-10-08T12:33:41;21.50;70.30
31747;DHT22;18319;48.974;8.462;2023-10-08T12:36:09;21.60;66.90
31747;DHT22;18319;48.974;8.462;2023-10-08T12:38:40;21.50;66.50
31747;DHT22;18319;48.974;8.462;2023-10-08T12:41:08;21.50;66.30
31747;DHT22;18319;48.974;8.462;2023-10-08T12:43:38;21.60;66.60
31747;DHT22;18319;48.974;8.462;2023-10-08T12:46:08;21.50;70.50
31747;DHT22;18319;48.974;8.462;2023-10-08T12:48:43;21.40;69.60
31747;DHT22;18319;48.974;8.462;2023-10-08T12:51:13;21.70;67.50
31747;DHT22;18319;48.974;8.462;2023-10-08T12:53:40;21.60;67.50
31747;DHT22;18319;48.974;8.462;2023-10-08T12:56:10;21.60;69.70
31747;DHT22;18319;48.974;8.462;2023-10-08T12:58:41;21.60;66.30
31747;DHT22;18319;48.974;8.462;2023-10-08T13:01:10;21.70;68.60
31747;DHT22;18319;48.974;8.462;2023-10-08T13:03:36;21.80;66.60
31747;DHT22;18319;48.974;8.462;2023-10-08T13:06:08;21.80;69.30
31747;DHT22;18319;48.974;8.462;2023-10-08T13:08:40;21.90;66.30
31747;DHT22;18319;48.974;8.462;2023-10-08T13:11:07;21.80;65.90
31747;DHT22;18319;48.974;8.462;2023-10-08T13:13:34;21.80;68.90
31747;DHT22;18319;48.974;8.462;2023-10-08T13:16:02;21.70;66.80
31747;DHT22;18319;48.974;8.462;2023-10-08T13:18:33;21.80;67.60
31747;DHT22;18319;48.974;8.462;2023-10-08T13:21:03;21.80;69.10
31747;DHT22;18319;48.974;8.462;2023-10-08T13:23:31;21.70;69.70
31747;DHT22;18319;48.974;8.462;2023-10-08T13:26:01;21.70;69.00
31747;DHT22;18319;48.974;8.462;2023-10-08T13:28:30;21.60;71.10
31747;DHT22;18319;48.974;8.462;2023-10-08T13:30:59;21.60;71.30
31747;DHT22;18319;48.974;8.462;2023-10-08T13:33:26;21.60;71.30
31747;DHT22;18319;48.974;8.462;2023-10-08T13:35:54;21.60;71.70
31747;DHT22;18319;48.974;8.462;2023-10-08T13:38:21;21.60;69.40
31747;DHT22;18319;48.974;8.462;2023-10-08T13:40:50;21.80;68.50
31747;DHT22;18319;48.974;8.462;2023-10-08T13:43:30;21.70;69.30
31747;DHT22;18319;48.974;8.462;2023-10-08T13:46:04;21.70;70.70
31747;DHT22;18319;48.974;8.462;2023-10-08T13:48:33;21.70;71.70
31747;DHT22;18319;48.974;8.462;2023-10-08T13:51:01;21.60;70.90
31747;DHT22;18319;48.974;8.462;2023-10-08T13:53:30;21.60;70.80
31747;DHT22;18319;48.974;8.462;2023-10-08T13:55:59;21.70;70.40
31747;DHT22;18319;48.974;8.462;2023-10-08T13:58:30;21.70;70.60
31747;DHT22;18319;48.974;8.462;2023-10-08T14:00:57;21.70;73.80
31747;DHT22;18319;48.974;8.462;2023-10-08T14:03:26;21.70;71.70
31747;DHT22;18319;48.974;8.462;2023-10-08T14:05:54;21.60;72.40
31747;DHT22;18319;48.974;8.462;2023-10-08T14:08:24;21.60;74.70
31747;DHT22;18319;48.974;8.462;2023-10-08T14:10:54;21.70;70.10
31747;DHT22;18319;48.974;8.462;2023-10-08T14:13:27;21.70;71.00
31747;DHT22;18319;48.974;8.462;2023-10-08T14:15:55;21.60;72.40
31747;DHT22;18319;48.974;8.462;2023-10-08T14:18:22;21.60;74.50
31747;DHT22;18319;48.974;8.462;2023-10-08T14:20:53;21.60;73.40
31747;DHT22;18319;48.974;8.462;2023-10-08T14:23:20;21.60;72.70
31747;DHT22;18319;48.974;8.462;2023-10-08T14:25:48;21.60;71.90
31747;DHT22;18319;48.974;8.462;2023-10-08T14:28:17;21.60;73.50
31747;DHT22;18319;48.974;8.462;2023-10-08T14:31:08;21.60;72.90
31747;DHT22;18319;48.974;8.462;2023-10-08T14:33:41;21.60;71.10
31747;DHT22;18319;48.974;8.462;2023-10-08T14:36:09;21.70;72.10
31747;DHT22;18319;48.974;8.462;2023-10-08T14:38:54;21.60;76.50
31747;DHT22;18319;48.974;8.462;2023-10-08T14:41:38;21.50;76.10
31747;DHT22;18319;48.974;8.462;2023-10-08T14:44:22;21.60;75.10
31747;DHT22;18319;48.974;8.462;2023-10-08T14:46:51;21.60;73.30
31747;DHT22;18319;48.974;8.462;2023-10-08T14:49:20;21.80;72.70
31747;DHT22;18319;48.974;8.462;2023-10-08T14:51:48;21.70;73.10
31747;DHT22;18319;48.974;8.462;2023-10-08T14:54:15;21.70;75.20
31747;DHT22;18319;48.974;8.462;2023-10-08T14:56:42;21.60;75.90
31747;DHT22;18319;48.974;8.462;2023-10-08T14:59:08;21.70;73.10
31747;DHT22;18319;48.974;8.462;2023-10-08T15:01:35;21.80;77.60
31747;DHT22;18319;48.974;8.462;2023-10-08T15:04:06;21.80;74.80
31747;DHT22;18319;48.974;8.462;2023-10-08T15:06:36;21.90;74.90
31747;DHT22;18319;48.974;8.462;2023-10-08T15:09:04;21.90;72.50
31747;DHT22;18319;48.974;8.462;2023-10-08T15:11:33;21.80;74.50
31747;DHT22;18319;48.974;8.462;2023-10-08T15:14:01;21.70;75.10
31747;DHT22;18319;48.974;8.462;2023-10-08T15:16:35;21.50;73.00
31747;DHT22;18319;48.974;8.462;2023-10-08T15:19:03;21.30;75.00
31747;DHT22;18319;48.974;8.462;2023-10-08T15:21:30;21.30;75.80
31747;DHT22;18319;48.974;8.462;2023-10-08T15:23:58;21.00;79.80
31747;DHT22;18319;48.974;8.462;2023-10-08T15:26:31;21.00;75.80
31747;DHT22;18319;48.974;8.462;2023-10-08T15:28:57;20.90;74.60
31747;DHT22;18319;48.974;8.462;2023-10-08T15:31:25;20.80;75.90
31747;DHT22;18319;48.974;8.462;2023-10-08T15:33:51;20.70;76.80
31747;DHT22;18319;48.974;8.462;2023-10-08T15:36:20;20.60;78.00
31747;DHT22;18319;48.974;8.462;2023-10-08T15:38:47;20.50;77.80
31747;DHT22;18319;48.974;8.462;2023-10-08T15:41:14;20.40;78.80
31747;DHT22;18319;48.974;8.462;2023-10-08T15:43:49;20.30;78.60
31747;DHT22;18319;48.974;8.462;2023-10-08T15:46:17;20.20;78.10
31747;DHT22;18319;48.974;8.462;2023-10-08T15:48:44;20.10;77.80
31747;DHT22;18319;48.974;8.462;2023-10-08T15:51:12;20.00;80.20
31747;DHT22;18319;48.974;8.462;2023-10-08T15:53:40;20.00;79.30
31747;DHT22;18319;48.974;8.462;2023-10-08T15:56:07;19.90;83.90